Houlton, ME

11:54 PM EST on February 11, 2016 (GMT -0500)
Houlton International | | Change Station
CLOSE
Current Station
Airport
Location: Houlton,
Elevation: 492 ft
Nearby Weather Stations

Elev 492 ft 46.12 °N, 67.79 °W | Updated 1 minute ago

Overcast
Overcast
7 °F
Feels Like -8 °F
N
12
Wind Variable Wind from NW

Today
High -- | Low -- °F
--% Chance of Precip.
Yesterday
High -- | Low -- °F
Precip. -- in
Pressure 29.77 in
Visibility 10.0 miles
Clouds Overcast 6000 ft
Windchill -8 °F
Dew Point -3 °F
Humidity 64%
Rainfall 0.00 in
Snow Depth Not available.
6:40 AM 4:50 PM
Waxing Crescent, 17% visible
METAR KHUL 120453Z AUTO 32010KT 10SM OVC060 M14/M19 A2973 RMK AO2 SLP079 T11391194 410501139
Pressure 29.77 in
Visibility 10.0 miles
Clouds Overcast 6000 ft
Windchill -8 °F
Dew Point -3 °F
Humidity 64%
Rainfall 0.00 in
Snow Depth Not available.
6:40 AM 4:50 PM
Waxing Crescent, 17% visible
METAR KHUL 120453Z AUTO 32010KT 10SM OVC060 M14/M19 A2973 RMK AO2 SLP079 T11391194 410501139

10-Day Weather Forecast

Almanac

Astronomy

Feb. 11, 2016 Rise Set
Actual Time
Civil Twilight
Nautical Twilight
Astronomical Twilight
Moon
Length of Visible Light
Length of Day
Tomorrow will be .
, % of the Moon is Illuminated

Today's Extremes

State Highs State Lows

Community

WunderPhotos

Upload Photos

1,892,268 photos uploaded!

WunderBlog® & News

Nearby

Air Quality

  Air Quality AQ Index Pollutant
Not available.

Snow Depth

Station Depth Elevation

Earthquake Activity

City Distance Mag. Time & Date
Minimum magnitude displayed is 2.5.

Coastal Water Temperatures

Place Temperature

Stations

Nearby Weather Stations

Station Location Temp. Windchill Dew Point Humidity Wind Precip. Elev Updated Type
                   

Watches & Warnings

There are currently no watches in effect.